Wetterdaten: Woche 24.05.10 - 30.05.10 (KW21)
Datum Zeit Temperatur Luftfeuchte Luftdruck Niederschlag Wind Richtung Sonnenschein Solar Taupunkt Windchill Windben
24.05.2010 00:00 13.9 C 80 % 1017.6 hPa 0.0 l/m 1.7 km/h (1 Bft) O 0.00 h 0 W/m 10.4 C 13.9 C 2.4 km/h (1 Bft)
24.05.2010 01:00 12.8 C 84 % 1017.4 hPa 0.0 l/m 0.5 km/h (0 Bft) O 0.00 h 0 W/m 10.1 C 12.8 C 1.4 km/h (1 Bft)
24.05.2010 02:00 11.9 C 87 % 1017.1 hPa 0.0 l/m 2.0 km/h (1 Bft) O 0.00 h 0 W/m 9.8 C 11.9 C 3.2 km/h (1 Bft)
24.05.2010 03:00 11.6 C 88 % 1016.9 hPa 0.0 l/m 0.5 km/h (0 Bft) O 0.00 h 0 W/m 9.6 C 11.6 C 1.3 km/h (1 Bft)
24.05.2010 04:00 10.5 C 90 % 1016.8 hPa 0.0 l/m 1.2 km/h (1 Bft) O 0.00 h 0 W/m 9.0 C 10.5 C 2.5 km/h (1 Bft)
24.05.2010 05:00 10.1 C 91 % 1016.7 hPa 0.0 l/m 1.4 km/h (1 Bft) O 0.02 h 8 W/m 8.7 C 10.1 C 2.5 km/h (1 Bft)
24.05.2010 06:00 9.8 C 92 % 1016.7 hPa 0.0 l/m 0.2 km/h (0 Bft) O 0.00 h 23 W/m 8.5 C 9.8 C 0.3 km/h (0 Bft)
24.05.2010 07:00 11.4 C 89 % 1016.6 hPa 0.0 l/m 0.0 km/h (0 Bft) N 0.88 h 188 W/m 9.7 C 11.4 C 0.2 km/h (0 Bft)
24.05.2010 08:00 14.5 C 81 % 1016.6 hPa 0.0 l/m 0.1 km/h (0 Bft) O 1.00 h 362 W/m 11.3 C 14.5 C 0.9 km/h (0 Bft)
24.05.2010 09:00 17.4 C 72 % 1016.3 hPa 0.0 l/m 0.3 km/h (0 Bft) O 1.00 h 531 W/m 12.2 C 17.4 C 1.3 km/h (1 Bft)
24.05.2010 10:00 19.7 C 64 % 1015.7 hPa 0.0 l/m 1.5 km/h (1 Bft) W 1.00 h 677 W/m 12.7 C 19.7 C 3.4 km/h (1 Bft)
24.05.2010 11:00 22.0 C 52 % 1015.2 hPa 0.0 l/m 2.3 km/h (1 Bft) S-SO 1.00 h 797 W/m 11.7 C 22.0 C 4.7 km/h (1 Bft)
24.05.2010 12:00 23.6 C 47 % 1014.6 hPa 0.0 l/m 3.3 km/h (1 Bft) O-SO 1.00 h 865 W/m 11.6 C 23.6 C 6.0 km/h (2 Bft)
24.05.2010 13:00 25.1 C 44 % 1013.8 hPa 0.0 l/m 3.4 km/h (1 Bft) S 1.00 h 882 W/m 12.0 C 25.1 C 6.5 km/h (2 Bft)
24.05.2010 14:00 26.7 C 37 % 1013.1 hPa 0.0 l/m 5.2 km/h (1 Bft) W 1.00 h 858 W/m 10.9 C 26.7 C 8.7 km/h (2 Bft)
24.05.2010 15:00 27.2 C 37 % 1012.5 hPa 0.0 l/m 7.9 km/h (2 Bft) W 1.00 h 767 W/m 11.4 C 27.2 C 11.8 km/h (2 Bft)
24.05.2010 16:00 27.6 C 37 % 1011.9 hPa 0.0 l/m 8.9 km/h (2 Bft) W 1.00 h 658 W/m 11.4 C 27.6 C 14.0 km/h (3 Bft)
24.05.2010 17:00 27.5 C 38 % 1011.6 hPa 0.0 l/m 9.0 km/h (2 Bft) W 1.00 h 504 W/m 11.9 C 27.5 C 14.2 km/h (3 Bft)
24.05.2010 18:00 27.7 C 38 % 1011.2 hPa 0.0 l/m 6.6 km/h (2 Bft) W 1.00 h 341 W/m 11.9 C 27.7 C 10.5 km/h (2 Bft)
24.05.2010 19:00 26.6 C 37 % 1011.0 hPa 0.0 l/m 6.9 km/h (2 Bft) W 1.00 h 179 W/m 10.8 C 26.6 C 10.4 km/h (2 Bft)
24.05.2010 20:00 24.5 C 40 % 1011.1 hPa 0.0 l/m 7.2 km/h (2 Bft) W-NW 0.52 h 49 W/m 10.0 C 24.5 C 11.2 km/h (2 Bft)
24.05.2010 21:00 22.1 C 45 % 1011.4 hPa 0.0 l/m 5.6 km/h (1 Bft) W-NW 0.00 h 6 W/m 9.5 C 22.1 C 9.1 km/h (2 Bft)
24.05.2010 22:00 20.7 C 50 % 1011.6 hPa 0.0 l/m 3.9 km/h (1 Bft) W 0.00 h 0 W/m 9.7 C 20.7 C 6.5 km/h (2 Bft)
24.05.2010 23:00 18.0 C 61 % 1011.6 hPa 0.0 l/m 4.1 km/h (1 Bft) O-SO 0.00 h 0 W/m 10.5 C 18.0 C 5.5 km/h (1 Bft)
25.05.2010 00:00 17.3 C 63 % 1011.9 hPa 0.0 l/m 0.8 km/h (0 Bft) O 0.00 h 0 W/m 10.1 C 17.3 C 1.8 km/h (1 Bft)
25.05.2010 01:00 14.8 C 74 % 1012.1 hPa 0.0 l/m 0.5 km/h (0 Bft) O-SO 0.00 h 0 W/m 10.2 C 14.8 C 1.0 km/h (0 Bft)
25.05.2010 02:00 13.5 C 81 % 1012.1 hPa 0.0 l/m 0.1 km/h (0 Bft) O-SO 0.00 h 0 W/m 10.2 C 13.5 C 0.5 km/h (0 Bft)
25.05.2010 03:00 12.7 C 84 % 1012.3 hPa 0.0 l/m 0.2 km/h (0 Bft) O-SO 0.00 h 0 W/m 10.0 C 12.7 C 0.7 km/h (0 Bft)
25.05.2010 04:00 11.9 C 87 % 1012.3 hPa 0.0 l/m 0.2 km/h (0 Bft) O-SO 0.00 h 0 W/m 9.9 C 11.9 C 0.5 km/h (0 Bft)
25.05.2010 05:00 11.4 C 90 % 1012.2 hPa 0.0 l/m 0.1 km/h (0 Bft) O-SO 0.02 h 8 W/m 9.8 C 11.4 C 0.4 km/h (0 Bft)
25.05.2010 06:00 11.4 C 91 % 1012.3 hPa 0.0 l/m 0.0 km/h (0 Bft) N 0.00 h 28 W/m 10.0 C 11.4 C 0.0 km/h (0 Bft)
25.05.2010 07:00 13.4 C 86 % 1012.3 hPa 0.0 l/m 0.0 km/h (0 Bft) N 0.90 h 180 W/m 11.1 C 13.4 C 0.0 km/h (0 Bft)
25.05.2010 08:00 16.1 C 78 % 1012.2 hPa 0.0 l/m 0.1 km/h (0 Bft) O-SO 1.00 h 346 W/m 12.3 C 16.1 C 0.8 km/h (0 Bft)
25.05.2010 09:00 20.1 C 67 % 1011.7 hPa 0.0 l/m 2.5 km/h (1 Bft) S 0.83 h 475 W/m 13.8 C 20.1 C 5.2 km/h (1 Bft)
25.05.2010 10:00 22.6 C 57 % 1011.3 hPa 0.0 l/m 3.4 km/h (1 Bft) S 1.00 h 663 W/m 13.6 C 22.6 C 7.2 km/h (2 Bft)
25.05.2010 11:00 24.7 C 49 % 1010.9 hPa 0.0 l/m 4.0 km/h (1 Bft) S-SO 1.00 h 772 W/m 13.3 C 24.7 C 7.6 km/h (2 Bft)
25.05.2010 12:00 26.5 C 44 % 1010.3 hPa 0.0 l/m 3.9 km/h (1 Bft) W-NW 1.00 h 851 W/m 13.4 C 26.5 C 6.7 km/h (2 Bft)
25.05.2010 13:00 27.6 C 35 % 1009.9 hPa 0.0 l/m 9.0 km/h (2 Bft) W 1.00 h 877 W/m 10.5 C 27.6 C 14.5 km/h (3 Bft)
25.05.2010 14:00 28.2 C 36 % 1009.4 hPa 0.0 l/m 7.4 km/h (2 Bft) W-SW 0.90 h 794 W/m 11.6 C 28.2 C 12.6 km/h (3 Bft)
25.05.2010 15:00 28.5 C 35 % 1009.0 hPa 0.0 l/m 8.6 km/h (2 Bft) W 0.72 h 675 W/m 11.6 C 28.5 C 13.7 km/h (3 Bft)
25.05.2010 16:00 27.9 C 37 % 1008.6 hPa 0.0 l/m 7.2 km/h (2 Bft) W 0.48 h 473 W/m 11.8 C 27.9 C 11.1 km/h (2 Bft)
25.05.2010 17:00 28.2 C 34 % 1008.1 hPa 0.0 l/m 8.3 km/h (2 Bft) W 1.00 h 465 W/m 11.0 C 28.2 C 13.7 km/h (3 Bft)
25.05.2010 18:00 27.8 C 36 % 1007.8 hPa 0.0 l/m 7.9 km/h (2 Bft) W 1.00 h 310 W/m 11.1 C 27.8 C 11.9 km/h (2 Bft)
25.05.2010 19:00 26.8 C 37 % 1007.6 hPa 0.0 l/m 6.5 km/h (2 Bft) W 0.87 h 171 W/m 10.9 C 26.8 C 9.7 km/h (2 Bft)
25.05.2010 20:00 24.1 C 46 % 1007.4 hPa 0.0 l/m 2.4 km/h (1 Bft) W-NW 0.17 h 36 W/m 11.5 C 24.1 C 4.5 km/h (1 Bft)
25.05.2010 21:00 20.7 C 61 % 1007.6 hPa 0.0 l/m 3.7 km/h (1 Bft) O 0.00 h 6 W/m 12.9 C 20.7 C 5.3 km/h (1 Bft)
25.05.2010 22:00 18.8 C 67 % 1008.2 hPa 0.0 l/m 3.2 km/h (1 Bft) O-SO 0.00 h 0 W/m 12.5 C 18.8 C 4.6 km/h (1 Bft)
25.05.2010 23:00 17.2 C 72 % 1008.2 hPa 0.0 l/m 0.5 km/h (0 Bft) O-SO 0.00 h 0 W/m 12.2 C 17.2 C 1.2 km/h (1 Bft)
26.05.2010 00:00 16.2 C 75 % 1008.6 hPa 0.0 l/m 2.5 km/h (1 Bft) O-SO 0.00 h 0 W/m 11.7 C 16.2 C 4.2 km/h (1 Bft)
26.05.2010 01:00 18.9 C 54 % 1008.3 hPa 0.0 l/m 6.9 km/h (2 Bft) W 0.00 h 0 W/m 9.3 C 18.9 C 10.9 km/h (2 Bft)
26.05.2010 02:00 20.0 C 52 % 1008.2 hPa 0.0 l/m 9.3 km/h (2 Bft) W 0.00 h 0 W/m 9.8 C 20.0 C 15.4 km/h (3 Bft)
26.05.2010 03:00 18.8 C 60 % 1008.4 hPa 0.0 l/m 2.2 km/h (1 Bft) W-NW 0.00 h 0 W/m 10.9 C 18.8 C 4.6 km/h (1 Bft)
26.05.2010 04:00 17.8 C 69 % 1008.3 hPa 0.0 l/m 2.5 km/h (1 Bft) W 0.00 h 0 W/m 12.0 C 17.8 C 4.4 km/h (1 Bft)
26.05.2010 05:00 17.0 C 73 % 1008.2 hPa 0.0 l/m 1.3 km/h (1 Bft) S 0.00 h 5 W/m 12.1 C 17.0 C 2.8 km/h (1 Bft)
26.05.2010 06:00 17.1 C 68 % 1008.7 hPa 0.0 l/m 2.4 km/h (1 Bft) S-SO 0.00 h 15 W/m 11.1 C 17.1 C 5.2 km/h (1 Bft)
26.05.2010 07:00 16.9 C 67 % 1008.9 hPa 0.0 l/m 4.9 km/h (1 Bft) S-SO 0.00 h 56 W/m 10.7 C 16.9 C 9.6 km/h (2 Bft)
26.05.2010 08:00 16.2 C 74 % 1008.9 hPa 0.0 l/m 3.2 km/h (1 Bft) S-SO 0.07 h 156 W/m 11.6 C 16.2 C 7.2 km/h (2 Bft)
26.05.2010 09:00 18.8 C 64 % 1008.6 hPa 0.0 l/m 2.6 km/h (1 Bft) W 0.65 h 423 W/m 11.8 C 18.8 C 5.3 km/h (1 Bft)
26.05.2010 10:00 20.0 C 58 % 1008.2 hPa 0.0 l/m 2.7 km/h (1 Bft) W-NW 0.77 h 602 W/m 11.5 C 20.0 C 5.1 km/h (1 Bft)
26.05.2010 11:00 21.6 C 54 % 1007.6 hPa 0.0 l/m 2.4 km/h (1 Bft) S-SO 0.58 h 604 W/m 11.8 C 21.6 C 5.1 km/h (1 Bft)
26.05.2010 12:00 21.9 C 54 % 1007.2 hPa 0.0 l/m 4.6 km/h (1 Bft) N-NW 0.18 h 397 W/m 12.3 C 21.9 C 7.5 km/h (2 Bft)
26.05.2010 13:00 22.4 C 53 % 1007.0 hPa 0.0 l/m 10.2 km/h (2 Bft) W 0.03 h 395 W/m 12.4 C 22.4 C 16.7 km/h (3 Bft)
26.05.2010 14:00 23.3 C 54 % 1006.5 hPa 0.0 l/m 7.3 km/h (2 Bft) W 0.72 h 619 W/m 13.3 C 23.3 C 11.7 km/h (2 Bft)
26.05.2010 15:00 24.4 C 47 % 1005.8 hPa 0.0 l/m 10.8 km/h (2 Bft) W 0.82 h 674 W/m 12.3 C 24.4 C 16.6 km/h (3 Bft)
26.05.2010 16:00 24.4 C 44 % 1005.5 hPa 0.0 l/m 10.1 km/h (2 Bft) W 0.98 h 629 W/m 11.5 C 24.4 C 16.0 km/h (3 Bft)
26.05.2010 17:00 24.4 C 44 % 1005.1 hPa 0.0 l/m 10.7 km/h (2 Bft) W 1.00 h 496 W/m 11.3 C 24.4 C 17.1 km/h (3 Bft)
26.05.2010 18:00 22.5 C 46 % 1005.1 hPa 0.0 l/m 14.2 km/h (3 Bft) W 0.55 h 245 W/m 10.2 C 22.5 C 21.3 km/h (4 Bft)
26.05.2010 19:00 20.8 C 52 % 1005.3 hPa 0.0 l/m 13.3 km/h (3 Bft) W 0.00 h 50 W/m 10.5 C 20.8 C 20.1 km/h (4 Bft)
26.05.2010 20:00 19.0 C 62 % 1006.2 hPa 0.0 l/m 20.1 km/h (4 Bft) W 0.00 h 9 W/m 11.5 C 19.0 C 29.2 km/h (5 Bft)
26.05.2010 21:00 15.0 C 82 % 1007.3 hPa 0.2 l/m 12.0 km/h (2 Bft) W 0.00 h 0 W/m 12.0 C 15.0 C 18.8 km/h (3 Bft)
26.05.2010 22:00 14.6 C 87 % 1007.7 hPa 0.2 l/m 3.0 km/h (1 Bft) S-SO 0.00 h 0 W/m 12.5 C 14.6 C 6.0 km/h (2 Bft)
26.05.2010 23:00 14.4 C 90 % 1008.1 hPa 0.2 l/m 0.2 km/h (0 Bft) S-SO 0.00 h 0 W/m 12.7 C 14.4 C 0.7 km/h (0 Bft)
27.05.2010 00:00 14.3 C 92 % 1008.0 hPa 0.4 l/m 0.4 km/h (0 Bft) S-SO 0.00 h 0 W/m 13.0 C 14.3 C 1.3 km/h (1 Bft)
27.05.2010 01:00 14.3 C 92 % 1007.8 hPa 0.0 l/m 0.7 km/h (0 Bft) S-SO 0.00 h 0 W/m 13.1 C 14.3 C 1.9 km/h (1 Bft)
27.05.2010 02:00 14.3 C 92 % 1007.4 hPa 0.0 l/m 0.0 km/h (0 Bft) N 0.00 h 0 W/m 13.0 C 14.3 C 0.1 km/h (0 Bft)
27.05.2010 03:00 14.0 C 95 % 1007.2 hPa 0.0 l/m 0.1 km/h (0 Bft) S-SO 0.00 h 0 W/m 13.2 C 14.0 C 0.4 km/h (0 Bft)
27.05.2010 04:00 13.8 C 95 % 1007.3 hPa 0.2 l/m 3.3 km/h (1 Bft) W 0.00 h 0 W/m 13.1 C 13.8 C 5.8 km/h (2 Bft)
27.05.2010 05:00 13.6 C 93 % 1007.4 hPa 0.0 l/m 3.9 km/h (1 Bft) W 0.00 h 0 W/m 12.6 C 13.6 C 6.8 km/h (2 Bft)
27.05.2010 06:00 14.0 C 91 % 1007.7 hPa 0.2 l/m 0.7 km/h (0 Bft) S 0.00 h 19 W/m 12.5 C 14.0 C 2.0 km/h (1 Bft)
27.05.2010 07:00 14.2 C 92 % 1008.1 hPa 0.0 l/m 0.6 km/h (0 Bft) S-SO 0.00 h 55 W/m 12.9 C 14.2 C 2.2 km/h (1 Bft)
27.05.2010 08:00 14.7 C 92 % 1008.9 hPa 0.0 l/m 0.6 km/h (0 Bft) W-SW 0.00 h 106 W/m 13.4 C 14.7 C 2.0 km/h (1 Bft)
27.05.2010 09:00 15.8 C 87 % 1009.0 hPa 0.0 l/m 4.5 km/h (1 Bft) W 0.22 h 280 W/m 13.6 C 15.8 C 8.5 km/h (2 Bft)
27.05.2010 10:00 16.0 C 84 % 1009.1 hPa 0.0 l/m 6.6 km/h (2 Bft) W 0.20 h 382 W/m 13.2 C 16.0 C 10.1 km/h (2 Bft)
27.05.2010 11:00 16.6 C 79 % 1009.1 hPa 0.0 l/m 8.3 km/h (2 Bft) W-NW 0.13 h 378 W/m 12.9 C 16.6 C 13.3 km/h (3 Bft)
27.05.2010 12:00 18.2 C 70 % 1008.9 hPa 0.0 l/m 9.7 km/h (2 Bft) W 0.33 h 496 W/m 12.7 C 18.2 C 15.3 km/h (3 Bft)
27.05.2010 13:00 18.0 C 66 % 1008.9 hPa 0.0 l/m 10.3 km/h (2 Bft) W-NW 0.13 h 393 W/m 11.6 C 18.0 C 16.3 km/h (3 Bft)
27.05.2010 14:00 19.2 C 63 % 1009.1 hPa 0.0 l/m 7.4 km/h (2 Bft) W 0.27 h 462 W/m 12.0 C 19.2 C 12.4 km/h (3 Bft)
27.05.2010 15:00 18.7 C 72 % 1009.4 hPa 0.0 l/m 6.6 km/h (2 Bft) S-SO 0.43 h 606 W/m 13.5 C 18.7 C 12.1 km/h (2 Bft)
27.05.2010 16:00 16.1 C 84 % 1010.0 hPa 0.2 l/m 4.8 km/h (1 Bft) S-SW 0.00 h 158 W/m 13.3 C 16.1 C 9.1 km/h (2 Bft)
27.05.2010 17:00 16.5 C 82 % 1009.9 hPa 0.2 l/m 3.2 km/h (1 Bft) S-SO 0.58 h 371 W/m 13.4 C 16.5 C 5.9 km/h (2 Bft)
27.05.2010 18:00 18.0 C 79 % 1009.7 hPa 0.4 l/m 2.6 km/h (1 Bft) S 0.30 h 201 W/m 14.4 C 18.0 C 5.5 km/h (1 Bft)
27.05.2010 19:00 16.1 C 87 % 1010.1 hPa 0.0 l/m 1.3 km/h (1 Bft) S-SO 0.27 h 78 W/m 13.8 C 16.1 C 2.9 km/h (1 Bft)
27.05.2010 20:00 16.1 C 84 % 1010.3 hPa 0.2 l/m 0.4 km/h (0 Bft) O 0.33 h 36 W/m 13.3 C 16.1 C 1.3 km/h (1 Bft)
27.05.2010 21:00 14.7 C 89 % 1010.9 hPa 0.0 l/m 1.1 km/h (1 Bft) O 0.00 h 6 W/m 12.9 C 14.7 C 2.1 km/h (1 Bft)
27.05.2010 22:00 13.4 C 92 % 1011.5 hPa 0.0 l/m 1.5 km/h (1 Bft) O 0.00 h 0 W/m 12.1 C 13.4 C 2.9 km/h (1 Bft)
27.05.2010 23:00 12.5 C 94 % 1011.7 hPa 0.0 l/m 0.6 km/h (0 Bft) SO 0.00 h 0 W/m 11.5 C 12.5 C 1.3 km/h (1 Bft)
28.05.2010 00:00 11.8 C 94 % 1011.9 hPa 0.0 l/m 0.9 km/h (0 Bft) SO 0.00 h 0 W/m 10.8 C 11.8 C 2.0 km/h (1 Bft)
28.05.2010 01:00 11.1 C 95 % 1011.6 hPa 0.0 l/m 0.4 km/h (0 Bft) SO 0.00 h 0 W/m 10.2 C 11.1 C 1.3 km/h (1 Bft)
28.05.2010 02:00 10.6 C 95 % 1011.5 hPa 0.0 l/m 0.5 km/h (0 Bft) SO 0.00 h 0 W/m 9.9 C 10.6 C 1.0 km/h (0 Bft)
28.05.2010 03:00 10.9 C 96 % 1011.6 hPa 0.0 l/m 0.2 km/h (0 Bft) SO 0.00 h 0 W/m 10.3 C 10.9 C 1.0 km/h (0 Bft)
28.05.2010 04:00 11.0 C 97 % 1011.8 hPa 0.0 l/m 0.4 km/h (0 Bft) SO 0.00 h 0 W/m 10.5 C 11.0 C 1.0 km/h (0 Bft)
28.05.2010 05:00 11.0 C 97 % 1011.9 hPa 0.0 l/m 0.8 km/h (0 Bft) SO 0.00 h 5 W/m 10.5 C 11.0 C 2.2 km/h (1 Bft)
28.05.2010 06:00 10.8 C 97 % 1012.3 hPa 0.0 l/m 0.8 km/h (0 Bft) SO 0.00 h 32 W/m 10.4 C 10.8 C 2.1 km/h (1 Bft)
28.05.2010 07:00 11.1 C 97 % 1012.6 hPa 0.0 l/m 0.2 km/h (0 Bft) SO 0.00 h 76 W/m 10.6 C 11.1 C 0.8 km/h (0 Bft)
28.05.2010 08:00 12.6 C 96 % 1012.8 hPa 0.0 l/m 0.8 km/h (0 Bft) SO 0.05 h 191 W/m 12.1 C 12.6 C 2.2 km/h (1 Bft)
28.05.2010 09:00 14.5 C 90 % 1013.0 hPa 0.0 l/m 1.2 km/h (1 Bft) S-SO 0.12 h 271 W/m 12.9 C 14.5 C 3.4 km/h (1 Bft)
28.05.2010 10:00 17.2 C 83 % 1013.0 hPa 0.0 l/m 1.3 km/h (1 Bft) W-SW 0.87 h 429 W/m 14.2 C 17.2 C 3.3 km/h (1 Bft)
28.05.2010 11:00 18.5 C 70 % 1013.0 hPa 0.0 l/m 8.3 km/h (2 Bft) W-NW 0.90 h 562 W/m 12.8 C 18.5 C 13.6 km/h (3 Bft)
28.05.2010 12:00 19.3 C 65 % 1012.8 hPa 0.0 l/m 6.9 km/h (2 Bft) W 0.33 h 505 W/m 12.6 C 19.3 C 11.4 km/h (2 Bft)
28.05.2010 13:00 19.3 C 63 % 1013.0 hPa 0.2 l/m 12.4 km/h (3 Bft) W 0.10 h 384 W/m 12.0 C 19.3 C 19.2 km/h (3 Bft)
28.05.2010 14:00 18.7 C 67 % 1013.0 hPa 0.0 l/m 13.6 km/h (3 Bft) W 0.45 h 481 W/m 12.5 C 18.7 C 21.4 km/h (4 Bft)
28.05.2010 15:00 19.1 C 65 % 1013.1 hPa 0.0 l/m 11.4 km/h (2 Bft) W 0.23 h 392 W/m 12.2 C 19.1 C 18.0 km/h (3 Bft)
28.05.2010 16:00 20.9 C 56 % 1012.9 hPa 0.0 l/m 9.7 km/h (2 Bft) W 0.65 h 591 W/m 11.8 C 20.9 C 15.0 km/h (3 Bft)
28.05.2010 17:00 21.0 C 54 % 1013.3 hPa 0.0 l/m 9.0 km/h (2 Bft) W 0.70 h 397 W/m 11.3 C 21.0 C 14.4 km/h (3 Bft)
28.05.2010 18:00 20.6 C 54 % 1013.6 hPa 0.0 l/m 11.5 km/h (2 Bft) W 0.70 h 319 W/m 11.1 C 20.6 C 17.9 km/h (3 Bft)
28.05.2010 19:00 20.3 C 55 % 1014.2 hPa 0.0 l/m 8.2 km/h (2 Bft) W 0.95 h 206 W/m 10.9 C 20.3 C 12.7 km/h (3 Bft)
28.05.2010 20:00 18.5 C 60 % 1015.0 hPa 0.0 l/m 4.1 km/h (1 Bft) W-NW 0.33 h 54 W/m 10.5 C 18.5 C 6.4 km/h (2 Bft)
28.05.2010 21:00 17.5 C 63 % 1015.6 hPa 0.0 l/m 0.1 km/h (0 Bft) W 0.00 h 0 W/m 10.3 C 17.5 C 0.3 km/h (0 Bft)
28.05.2010 22:00 16.9 C 68 % 1016.4 hPa 0.0 l/m 1.2 km/h (1 Bft) W 0.00 h 0 W/m 10.9 C 16.9 C 3.0 km/h (1 Bft)
28.05.2010 23:00 14.3 C 88 % 1017.2 hPa 1.6 l/m 0.5 km/h (0 Bft) S-SO 0.00 h 0 W/m 12.3 C 14.3 C 2.0 km/h (1 Bft)
29.05.2010 00:00 13.4 C 92 % 1017.5 hPa 0.0 l/m 0.3 km/h (0 Bft) O-NO 0.00 h 0 W/m 12.1 C 13.4 C 1.1 km/h (1 Bft)
29.05.2010 01:00 13.7 C 91 % 1017.7 hPa 0.0 l/m 0.1 km/h (0 Bft) N-NW 0.00 h 0 W/m 12.2 C 13.7 C 0.5 km/h (0 Bft)
29.05.2010 02:00 13.5 C 93 % 1017.3 hPa 0.0 l/m 0.4 km/h (0 Bft) N-NW 0.00 h 0 W/m 12.4 C 13.5 C 1.3 km/h (1 Bft)
29.05.2010 03:00 13.2 C 94 % 1017.1 hPa 0.0 l/m 0.1 km/h (0 Bft) N-NW 0.00 h 0 W/m 12.3 C 13.2 C 0.5 km/h (0 Bft)
29.05.2010 04:00 13.0 C 95 % 1016.8 hPa 0.0 l/m 0.5 km/h (0 Bft) W-NW 0.00 h 0 W/m 12.2 C 13.0 C 1.2 km/h (1 Bft)
29.05.2010 05:00 12.5 C 95 % 1017.1 hPa 0.0 l/m 0.1 km/h (0 Bft) W-NW 0.00 h 8 W/m 11.7 C 12.5 C 0.4 km/h (0 Bft)
29.05.2010 06:00 12.1 C 96 % 1017.3 hPa 0.0 l/m 0.0 km/h (0 Bft) N 0.22 h 59 W/m 11.5 C 12.1 C 0.1 km/h (0 Bft)
29.05.2010 07:00 13.1 C 95 % 1017.5 hPa 0.0 l/m 0.2 km/h (0 Bft) W-NW 0.12 h 106 W/m 12.4 C 13.1 C 0.9 km/h (0 Bft)
29.05.2010 08:00 14.1 C 92 % 1017.6 hPa 0.0 l/m 2.6 km/h (1 Bft) NW 0.78 h 318 W/m 12.8 C 14.1 C 4.4 km/h (1 Bft)
29.05.2010 09:00 15.7 C 86 % 1017.6 hPa 0.0 l/m 1.6 km/h (1 Bft) N-NW 0.57 h 399 W/m 13.4 C 15.7 C 3.4 km/h (1 Bft)
29.05.2010 10:00 17.1 C 79 % 1017.4 hPa 0.0 l/m 1.4 km/h (1 Bft) N-NW 0.85 h 476 W/m 13.5 C 17.1 C 3.1 km/h (1 Bft)
29.05.2010 11:00 19.2 C 71 % 1017.2 hPa 0.0 l/m 3.5 km/h (1 Bft) W 1.00 h 859 W/m 13.7 C 19.2 C 5.9 km/h (2 Bft)
29.05.2010 12:00 19.5 C 69 % 1016.9 hPa 0.2 l/m 4.0 km/h (1 Bft) W-NW 0.60 h 633 W/m 13.6 C 19.5 C 6.4 km/h (2 Bft)
29.05.2010 13:00 21.1 C 63 % 1016.2 hPa 0.0 l/m 3.4 km/h (1 Bft) W-NW 0.87 h 871 W/m 13.7 C 21.1 C 6.0 km/h (2 Bft)
29.05.2010 14:00 21.9 C 59 % 1015.4 hPa 0.0 l/m 2.6 km/h (1 Bft) O-SO 0.97 h 825 W/m 13.6 C 21.9 C 5.2 km/h (1 Bft)
29.05.2010 15:00 22.7 C 55 % 1014.8 hPa 0.0 l/m 2.8 km/h (1 Bft) W 0.72 h 660 W/m 13.3 C 22.7 C 5.2 km/h (1 Bft)
29.05.2010 16:00 23.3 C 52 % 1014.5 hPa 0.0 l/m 7.3 km/h (2 Bft) W 0.95 h 552 W/m 12.8 C 23.3 C 11.7 km/h (2 Bft)
29.05.2010 17:00 21.8 C 54 % 1014.5 hPa 0.2 l/m 11.4 km/h (2 Bft) W 0.70 h 353 W/m 12.1 C 21.8 C 17.7 km/h (3 Bft)
29.05.2010 18:00 20.2 C 56 % 1014.7 hPa 0.0 l/m 12.6 km/h (3 Bft) W 0.00 h 172 W/m 11.1 C 20.2 C 19.8 km/h (4 Bft)
29.05.2010 19:00 19.1 C 52 % 1014.8 hPa 0.0 l/m 12.8 km/h (3 Bft) W-NW 0.02 h 99 W/m 9.1 C 19.1 C 20.4 km/h (4 Bft)
29.05.2010 20:00 18.3 C 51 % 1015.2 hPa 0.0 l/m 10.4 km/h (2 Bft) W-NW 0.33 h 42 W/m 8.0 C 18.3 C 16.9 km/h (3 Bft)
29.05.2010 21:00 17.2 C 54 % 1015.6 hPa 0.0 l/m 5.0 km/h (1 Bft) W-NW 0.03 h 9 W/m 7.9 C 17.2 C 8.2 km/h (2 Bft)
29.05.2010 22:00 16.3 C 59 % 1015.8 hPa 0.0 l/m 2.8 km/h (1 Bft) W-NW 0.00 h 0 W/m 8.2 C 16.3 C 5.0 km/h (1 Bft)
29.05.2010 23:00 15.9 C 63 % 1015.3 hPa 0.0 l/m 1.1 km/h (1 Bft) SO 0.00 h 0 W/m 8.8 C 15.9 C 1.9 km/h (1 Bft)
30.05.2010 00:00 14.6 C 70 % 1014.8 hPa 0.0 l/m 0.9 km/h (0 Bft) SO 0.00 h 0 W/m 9.1 C 14.6 C 1.6 km/h (1 Bft)
30.05.2010 01:00 13.7 C 76 % 1014.1 hPa 0.0 l/m 0.0 km/h (0 Bft) N 0.00 h 0 W/m 9.5 C 13.7 C 0.0 km/h (0 Bft)
30.05.2010 02:00 13.0 C 86 % 1013.8 hPa 0.6 l/m 2.1 km/h (1 Bft) W 0.00 h 0 W/m 10.7 C 13.0 C 4.1 km/h (1 Bft)
30.05.2010 03:00 12.9 C 93 % 1013.2 hPa 1.8 l/m 4.6 km/h (1 Bft) W 0.00 h 0 W/m 11.7 C 12.9 C 9.0 km/h (2 Bft)
30.05.2010 04:00 12.9 C 94 % 1012.3 hPa 1.6 l/m 0.8 km/h (0 Bft) S 0.00 h 0 W/m 11.9 C 12.9 C 2.6 km/h (1 Bft)
30.05.2010 05:00 12.6 C 95 % 1011.8 hPa 3.2 l/m 0.9 km/h (0 Bft) S-SO 0.00 h 0 W/m 11.9 C 12.6 C 2.2 km/h (1 Bft)
30.05.2010 06:00 12.8 C 95 % 1011.5 hPa 4.0 l/m 1.8 km/h (1 Bft) S-SO 0.00 h 12 W/m 12.0 C 12.8 C 4.0 km/h (1 Bft)
30.05.2010 07:00 13.2 C 95 % 1011.3 hPa 1.6 l/m 2.0 km/h (1 Bft) S-SO 0.03 h 64 W/m 12.4 C 13.2 C 4.7 km/h (1 Bft)
30.05.2010 08:00 13.6 C 95 % 1011.3 hPa 2.2 l/m 1.7 km/h (1 Bft) SW 0.00 h 78 W/m 12.8 C 13.6 C 4.6 km/h (1 Bft)
30.05.2010 09:00 14.1 C 96 % 1011.5 hPa 0.0 l/m 0.9 km/h (0 Bft) W-SW 0.00 h 107 W/m 13.4 C 14.1 C 2.9 km/h (1 Bft)
30.05.2010 10:00 14.5 C 95 % 1011.2 hPa 1.0 l/m 2.8 km/h (1 Bft) S-SO 0.00 h 154 W/m 13.7 C 14.5 C 6.3 km/h (2 Bft)
30.05.2010 11:00 14.9 C 95 % 1011.0 hPa 1.4 l/m 5.1 km/h (1 Bft) W-SW 0.00 h 148 W/m 14.1 C 14.9 C 9.6 km/h (2 Bft)
30.05.2010 12:00 15.7 C 91 % 1011.2 hPa 0.2 l/m 16.8 km/h (3 Bft) W 0.67 h 557 W/m 14.2 C 15.7 C 26.4 km/h (4 Bft)
30.05.2010 13:00 16.2 C 83 % 1011.4 hPa 0.0 l/m 14.6 km/h (3 Bft) W 0.40 h 465 W/m 13.2 C 16.2 C 23.8 km/h (4 Bft)
30.05.2010 14:00 16.2 C 79 % 1011.3 hPa 0.0 l/m 16.5 km/h (3 Bft) W 0.22 h 378 W/m 12.5 C 16.2 C 25.8 km/h (4 Bft)
30.05.2010 15:00 15.6 C 83 % 1011.8 hPa 0.0 l/m 18.6 km/h (3 Bft) W 0.63 h 505 W/m 12.6 C 15.6 C 27.8 km/h (4 Bft)
30.05.2010 16:00 17.1 C 72 % 1011.3 hPa 0.0 l/m 18.4 km/h (3 Bft) W 0.72 h 521 W/m 12.0 C 17.1 C 28.0 km/h (4 Bft)
30.05.2010 17:00 16.9 C 71 % 1011.4 hPa 0.0 l/m 15.4 km/h (3 Bft) W 0.05 h 222 W/m 11.5 C 16.9 C 24.4 km/h (4 Bft)
30.05.2010 18:00 16.9 C 69 % 1011.4 hPa 0.0 l/m 18.0 km/h (3 Bft) W 0.00 h 151 W/m 11.1 C 16.9 C 28.0 km/h (4 Bft)
30.05.2010 19:00 16.2 C 69 % 1011.4 hPa 0.0 l/m 17.8 km/h (3 Bft) W 0.00 h 88 W/m 10.5 C 16.2 C 27.7 km/h (4 Bft)
30.05.2010 20:00 15.4 C 71 % 1011.4 hPa 0.0 l/m 11.2 km/h (2 Bft) W 0.00 h 26 W/m 10.1 C 15.4 C 18.2 km/h (3 Bft)
30.05.2010 21:00 15.0 C 73 % 1011.3 hPa 0.0 l/m 13.7 km/h (3 Bft) W 0.00 h 5 W/m 10.2 C 15.0 C 21.1 km/h (4 Bft)
30.05.2010 22:00 14.1 C 81 % 1011.4 hPa 0.4 l/m 13.6 km/h (3 Bft) W 0.00 h 0 W/m 10.8 C 14.1 C 20.9 km/h (4 Bft)
30.05.2010 23:00 12.3 C 92 % 1011.4 hPa 2.0 l/m 9.0 km/h (2 Bft) W 0.00 h 0 W/m 11.1 C 12.3 C 14.8 km/h (3 Bft)
Min-Datum _ 24.05.10 25.05.10 26.05.10 - 24.05.10 - - - 29.05.10 24.05.10 24.05.10
_ Min-Zeit 06:16 13:55 17:06 - 00:27 - - - 20:52 05:24 00:28
Minimum _ 9.5 C 30 % 1005.0 hPa - 0.0 km/h (0 Bft) - - - 7.3 C 9.6 C 0.0 km/h (0 Bft)
Max-Datum _ 25.05.10 28.05.10 24.05.10 30.05.10 26.05.10 - 24.05.10 26.05.10 29.05.10 25.05.10 30.05.10
_ Max-Zeit 15:36 04:03 00:00 06:00 20:31 - 15:31 14:11 13:53 15:36 19:42
Maximum _ 29.2 C 97 % 1017.8 hPa 4.0 l/m 34.6 km/h
W (5 Bft)
- 0.03 h 1220 W/m 16.2 C 29.2 C 48.7 km/h
W (6 Bft)
Durchschnitt _ 17.4 C 72 % 1011.8 hPa #24.6 l/m 4.8 km/h (1 Bft) W #52:40 h 232 W/m 11.7 C 17.4 C 8.0 km/h (2 Bft)
© Kaiko 2010